createdAt,value
2024-05-09T00:01:20.904Z,14.9
2024-05-09T00:06:43.263Z,14.8
2024-05-09T00:12:16.588Z,14.8
2024-05-09T00:17:24.482Z,14.8
2024-05-09T00:23:00.291Z,14.8
2024-05-09T00:28:25.045Z,14.8
2024-05-09T00:34:02.914Z,14.8
2024-05-09T00:39:24.728Z,14.8
2024-05-09T00:45:02.221Z,14.8
2024-05-09T00:50:36.755Z,14.7
2024-05-09T00:55:44.208Z,14.6
2024-05-09T01:01:21.324Z,14.6
2024-05-09T01:06:45.765Z,14.6
2024-05-09T01:12:21.618Z,14.5
2024-05-09T01:17:43.870Z,14.4
2024-05-09T01:23:20.586Z,14.4
2024-05-09T01:28:58.407Z,14.3
2024-05-09T01:34:49.109Z,14.3
2024-05-09T01:40:36.293Z,14.2
2024-05-09T01:46:02.125Z,14.1
2024-05-09T01:51:35.211Z,14.1
2024-05-09T01:56:57.936Z,14.1
2024-05-09T02:02:51.654Z,14
2024-05-09T02:08:16.837Z,14
2024-05-09T02:13:33.826Z,13.9
2024-05-09T02:19:12.167Z,13.9
2024-05-09T02:25:03.832Z,13.9
2024-05-09T02:30:15.232Z,13.8
2024-05-09T02:36:06.384Z,13.8
2024-05-09T02:41:52.653Z,13.7
2024-05-09T02:47:30.284Z,13.7
2024-05-09T02:53:21.823Z,13.6
2024-05-09T02:58:57.591Z,13.6
2024-05-09T03:04:50.738Z,13.6
2024-05-09T03:10:39.119Z,13.5
2024-05-09T03:16:22.638Z,13.5
2024-05-09T03:22:10.008Z,13.5
2024-05-09T03:27:31.327Z,13.4
2024-05-09T03:33:07.803Z,13.4
2024-05-09T03:38:47.513Z,13.4
2024-05-09T03:44:34.886Z,13.4
2024-05-09T03:50:17.895Z,13.3
2024-05-09T03:56:03.624Z,13.3
2024-05-09T04:01:51.353Z,13.3
2024-05-09T04:07:30.424Z,13.3
2024-05-09T04:13:20.942Z,13.3
2024-05-09T04:18:58.692Z,13.3
2024-05-09T04:24:49.855Z,13.3
2024-05-09T04:30:39.578Z,13.4
2024-05-09T04:36:23.773Z,13.4
2024-05-09T04:42:16.369Z,13.5
2024-05-09T04:47:55.569Z,13.6
2024-05-09T04:53:48.020Z,13.7
2024-05-09T04:59:37.380Z,13.9
2024-05-09T05:05:28.750Z,14
2024-05-09T05:11:16.160Z,14.1
2024-05-09T05:16:53.330Z,14.3
2024-05-09T05:22:47.206Z,14.5
2024-05-09T05:28:09.082Z,14.6
2024-05-09T05:33:59.566Z,14.9
2024-05-09T05:39:39.691Z,15.1
2024-05-09T05:45:27.098Z,15.4
2024-05-09T05:51:21.093Z,15.6
2024-05-09T05:56:59.798Z,15.8
2024-05-09T06:02:54.513Z,16.1
2024-05-09T06:08:36.011Z,16.4
2024-05-09T06:14:24.139Z,16.8
2024-05-09T06:20:09.223Z,17.2
2024-05-09T06:25:53.031Z,17.8
2024-05-09T06:31:41.889Z,18.4
2024-05-09T06:37:21.495Z,19
2024-05-09T06:43:12.341Z,19.5
2024-05-09T06:48:51.448Z,20
2024-05-09T06:54:37.991Z,20.6
2024-05-09T07:00:22.617Z,21.1
2024-05-09T07:06:11.937Z,21.7
2024-05-09T07:12:00.378Z,22.3
2024-05-09T07:17:37.304Z,22.7
2024-05-09T07:23:27.414Z,23
2024-05-09T07:28:50.825Z,23.3
2024-05-09T07:34:38.189Z,23.5
2024-05-09T07:40:21.564Z,23.8
2024-05-09T07:58:27.932Z,31.8
2024-05-09T08:04:15.247Z,31.1
2024-05-09T08:09:59.697Z,29.9
2024-05-09T08:15:45.597Z,29.1
2024-05-09T08:21:37.336Z,28.4
2024-05-09T08:32:52.947Z,27.1
2024-05-09T08:38:49.280Z,26.3
2024-05-09T08:44:40.235Z,25.4
2024-05-09T08:50:28.360Z,24.5
2024-05-09T08:56:12.146Z,23.6
2024-05-09T09:02:04.082Z,22.8
2024-05-09T09:07:45.728Z,22.1
2024-05-09T09:13:20.492Z,21.4
2024-05-09T09:18:58.786Z,20.9
2024-05-09T09:24:50.909Z,20.4
2024-05-09T09:30:47.757Z,20.1
2024-05-09T09:36:28.124Z,19.8
2024-05-09T09:42:01.354Z,19.6
2024-05-09T09:47:49.695Z,19.4
2024-05-09T09:53:26.416Z,19.3
2024-05-09T09:58:52.347Z,19.2
2024-05-09T10:04:24.445Z,19.5
2024-05-09T10:10:01.606Z,20.1
2024-05-09T10:16:01.115Z,21.3
2024-05-09T10:21:52.552Z,22.6
2024-05-09T10:27:29.485Z,23.6
2024-05-09T10:33:02.995Z,24.6
2024-05-09T10:38:42.113Z,29.7
2024-05-09T10:44:32.881Z,29.6
2024-05-09T10:49:59.871Z,28.8
2024-05-09T10:55:44.924Z,28.1
2024-05-09T11:01:31.636Z,27.5
2024-05-09T11:07:12.624Z,27.3
2024-05-09T11:12:54.583Z,27.4
2024-05-09T11:18:33.705Z,32.5
2024-05-09T11:24:27.700Z,32.9
2024-05-09T11:30:07.285Z,33.8
2024-05-09T11:35:52.535Z,34.6
2024-05-09T11:41:45.155Z,35.3
2024-05-09T11:47:23.990Z,35.8
2024-05-09T11:53:14.223Z,36.5
2024-05-09T11:58:53.304Z,37.4
2024-05-09T12:04:29.050Z,37.3
2024-05-09T12:10:09.393Z,37.7
2024-05-09T12:15:58.067Z,37.6
2024-05-09T12:21:52.067Z,38.1
2024-05-09T12:27:29.788Z,38.5
2024-05-09T12:33:04.946Z,36.4
2024-05-09T12:38:42.967Z,35.8
2024-05-09T12:44:29.315Z,35.8
2024-05-09T12:50:18.580Z,33.9
2024-05-09T12:56:12.784Z,34.1
2024-05-09T13:02:00.942Z,34.1
2024-05-09T13:07:44.497Z,34.2
2024-05-09T13:13:28.895Z,34.3
2024-05-09T13:19:08.067Z,34.4
2024-05-09T13:24:57.087Z,34.4
2024-05-09T13:30:51.205Z,34.3
2024-05-09T13:36:14.293Z,34
2024-05-09T13:41:46.120Z,33.6
2024-05-09T13:47:24.002Z,33.4
2024-05-09T13:52:56.895Z,33.3
2024-05-09T13:58:37.797Z,33.1
2024-05-09T14:04:17.161Z,32.7
2024-05-09T14:09:55.047Z,32.4
2024-05-09T14:15:30.330Z,32.1
2024-05-09T14:21:21.476Z,31.8
2024-05-09T14:27:03.005Z,31.5
2024-05-09T14:32:51.038Z,31.3
2024-05-09T14:38:33.927Z,31
2024-05-09T14:44:30.189Z,30.7
2024-05-09T14:50:13.771Z,30.4
2024-05-09T14:56:05.622Z,30.2
2024-05-09T15:01:59.419Z,29.9
2024-05-09T15:07:39.495Z,29.8
2024-05-09T15:13:32.616Z,29.4
2024-05-09T15:19:09.863Z,29.2
2024-05-09T15:24:59.746Z,28.9
2024-05-09T15:30:46.964Z,28.5
2024-05-09T15:36:25.252Z,27.2
2024-05-09T15:42:17.382Z,26.1
2024-05-09T15:47:55.804Z,25.1
2024-05-09T15:53:48.771Z,24
2024-05-09T15:59:27.600Z,23
2024-05-09T16:05:20.886Z,22.1
2024-05-09T16:11:08.321Z,21.2
2024-05-09T16:16:46.815Z,20.4
2024-05-09T16:22:42.106Z,19.6
2024-05-09T16:28:18.658Z,18.9
2024-05-09T16:34:08.094Z,18.3
2024-05-09T16:39:48.205Z,17.8
2024-05-09T16:45:41.818Z,17.2
2024-05-09T16:51:26.307Z,16.7
2024-05-09T16:57:05.111Z,16.3
2024-05-09T17:03:01.934Z,15.9
2024-05-09T17:08:41.469Z,15.5
2024-05-09T17:14:42.563Z,15.1
2024-05-09T17:20:28.789Z,14.8
2024-05-09T17:26:11.032Z,14.5
2024-05-09T17:31:59.775Z,14.3
2024-05-09T17:37:38.822Z,13.9
2024-05-09T17:43:13.418Z,13.7
2024-05-09T17:48:52.311Z,13.5
2024-05-09T17:54:40.119Z,13.3
2024-05-09T18:00:32.645Z,13
2024-05-09T18:06:22.090Z,12.8
2024-05-09T18:12:08.582Z,12.6
2024-05-09T18:17:30.805Z,12.4
2024-05-09T18:23:23.707Z,12.3
2024-05-09T18:29:03.891Z,12
2024-05-09T18:34:55.460Z,11.9
2024-05-09T18:40:45.167Z,11.7
2024-05-09T18:46:34.077Z,11.5
2024-05-09T18:52:26.934Z,11.4
2024-05-09T18:58:03.733Z,11.3
2024-05-09T19:04:02.019Z,11.1
2024-05-09T19:09:46.680Z,10.9
2024-05-09T19:15:32.795Z,10.8
2024-05-09T19:21:22.593Z,10.8
2024-05-09T19:27:12.403Z,10.6
2024-05-09T19:33:03.154Z,10.5
2024-05-09T19:38:40.878Z,10.4
2024-05-09T19:44:31.086Z,10.4
2024-05-09T19:50:11.118Z,10.3
2024-05-09T19:56:04.133Z,10.2
2024-05-09T20:01:56.339Z,10.1
2024-05-09T20:07:37.396Z,10.1
2024-05-09T20:13:25.539Z,10
2024-05-09T20:18:49.824Z,9.9
2024-05-09T20:24:41.561Z,9.9
2024-05-09T20:30:21.626Z,9.8
2024-05-09T20:36:07.054Z,9.8
2024-05-09T20:41:55.934Z,9.8
2024-05-09T20:47:32.704Z,9.7
2024-05-09T20:53:24.791Z,9.7
2024-05-09T20:59:02.544Z,9.6
2024-05-09T21:05:00.024Z,9.6
2024-05-09T21:10:43.054Z,9.6
2024-05-09T21:16:20.881Z,9.5
2024-05-09T21:22:03.432Z,9.5
2024-05-09T21:27:40.384Z,9.4
2024-05-09T21:33:18.403Z,9.4
2024-05-09T21:38:56.215Z,9.4
2024-05-09T21:44:45.910Z,9.4
2024-05-09T21:50:28.652Z,9.4
2024-05-09T21:56:13.419Z,9.4
2024-05-09T22:02:04.402Z,9.4
2024-05-09T22:07:45.154Z,9.3
2024-05-09T22:13:38.633Z,9.3
2024-05-09T22:19:16.633Z,9.3
2024-05-09T22:25:09.036Z,9.3
2024-05-09T22:30:56.740Z,9.3
2024-05-09T22:36:40.496Z,9.3
2024-05-09T22:42:34.833Z,9.3
2024-05-09T22:48:12.948Z,9.3
2024-05-09T22:53:43.073Z,9.3
2024-05-09T22:59:20.262Z,9.3
2024-05-09T23:05:09.582Z,9.3
2024-05-09T23:10:55.352Z,9.3
2024-05-09T23:16:34.046Z,9.3
2024-05-09T23:22:22.985Z,9.3
2024-05-09T23:28:00.968Z,9.3
2024-05-09T23:33:52.095Z,9.3
2024-05-09T23:39:32.993Z,9.2
2024-05-09T23:45:24.724Z,9.2
2024-05-09T23:51:17.610Z,9.2
2024-05-09T23:56:54.243Z,9.2
